Time;durP1;ratioP1;P1;durP2;ratioP2;P2;SDS_P1;SDS_P2;PMS_P1;PMS_P2;Temp;Humidity;BMP_temperature;BMP_pressure;BME280_temperature;BME280_humidity;BME280_pressure;Samples;Min_cycle;Max_cycle;Signal;HPM_P1;HPM_P2
2023/08/20 00:01:34;;;;;;;8.90;6.13;;;19.40;99.90;;;;;;5105583;28;20246;-88
2023/08/20 00:04:01;;;;;;;11.48;7.35;;;19.40;99.90;;;;;;5121269;28;20207;-86
2023/08/20 00:06:28;;;;;;;12.13;8.23;;;19.50;99.90;;;;;;5118368;28;20238;-86
2023/08/20 00:08:55;;;;;;;9.20;6.72;;;19.50;99.90;;;;;;5101203;28;20203;-85
2023/08/20 00:11:22;;;;;;;10.00;6.55;;;19.50;99.90;;;;;;5100098;28;20230;-86
2023/08/20 00:13:49;;;;;;;8.05;6.28;;;19.50;99.90;;;;;;5106037;28;20191;-85
2023/08/20 00:16:16;;;;;;;9.65;7.18;;;19.50;99.90;;;;;;5094450;28;20222;-87
2023/08/20 00:18:43;;;;;;;9.85;6.53;;;19.50;99.90;;;;;;5094533;28;20558;-87
2023/08/20 00:21:10;;;;;;;7.22;6.10;;;19.50;99.90;;;;;;5095569;28;20219;-85
2023/08/20 00:23:37;;;;;;;7.28;5.93;;;19.40;99.90;;;;;;5104462;28;20210;-88
2023/08/20 00:26:04;;;;;;;8.75;6.28;;;19.40;99.90;;;;;;5093531;28;20203;-86
2023/08/20 00:28:36;;;;;;;8.77;6.10;;;19.30;99.90;;;;;;5094138;28;20365;-87
2023/08/20 00:31:03;;;;;;;9.27;5.55;;;19.30;99.90;;;;;;5093393;28;20268;-88
2023/08/20 00:33:31;;;;;;;7.70;5.45;;;19.30;99.90;;;;;;5093782;28;20210;-88
2023/08/20 00:35:58;;;;;;;9.55;5.88;;;19.20;99.90;;;;;;5110915;28;20206;-86
2023/08/20 00:38:25;;;;;;;9.77;5.85;;;19.30;99.90;;;;;;5092976;28;20214;-86
2023/08/20 00:40:52;;;;;;;9.88;5.80;;;19.30;99.90;;;;;;5084488;28;20214;-87
2023/08/20 00:43:19;;;;;;;7.85;5.90;;;19.30;99.90;;;;;;5112279;28;20211;-86
2023/08/20 00:45:46;;;;;;;7.68;5.55;;;19.30;99.90;;;;;;5095079;28;20222;-86
2023/08/20 00:48:13;;;;;;;11.88;5.70;;;19.10;99.90;;;;;;5098012;28;20211;-86
2023/08/20 00:50:40;;;;;;;7.00;5.07;;;19.20;99.90;;;;;;5101842;27;20256;-86
2023/08/20 00:53:11;;;;;;;9.15;6.05;;;19.20;99.90;;;;;;5136704;27;20275;-87
2023/08/20 00:55:38;;;;;;;9.55;5.93;;;19.10;99.90;;;;;;5118629;27;20221;-87
2023/08/20 00:58:06;;;;;;;9.38;5.85;;;19.20;99.90;;;;;;5119337;27;20228;-86
2023/08/20 01:00:33;;;;;;;6.18;5.43;;;19.10;99.90;;;;;;5133620;27;20653;-88
2023/08/20 01:02:59;;;;;;;8.20;5.32;;;19.10;99.90;;;;;;5111768;27;20198;-89
2023/08/20 01:05:33;;;;;;;8.75;5.32;;;19.10;99.90;;;;;;5118187;27;20216;-86
2023/08/20 01:08:28;;;;;;;7.93;4.93;;;18.80;99.90;;;;;;5112892;27;20211;-86
2023/08/20 01:11:08;;;;;;;13.40;5.97;;;19.00;99.90;;;;;;5119288;27;20311;-86
2023/08/20 01:13:35;;;;;;;8.07;5.25;;;19.30;99.90;;;;;;5088975;28;20260;-85
2023/08/20 01:16:02;;;;;;;6.88;5.35;;;18.60;99.90;;;;;;5102190;28;20710;-86
2023/08/20 01:18:32;;;;;;;8.07;5.90;;;18.90;99.90;;;;;;5099522;28;20207;-86
2023/08/20 01:21:04;;;;;;;8.43;5.38;;;18.80;99.90;;;;;;5098590;28;20686;-86
2023/08/20 01:23:44;;;;;;;8.23;5.75;;;18.90;99.90;;;;;;5115574;28;20207;-85
2023/08/20 01:26:46;;;;;;;9.38;6.40;;;18.80;99.90;;;;;;5096503;28;20203;-86
2023/08/20 01:29:13;;;;;;;7.53;6.10;;;18.80;99.90;;;;;;5114190;28;20248;-87
2023/08/20 01:31:42;;;;;;;7.63;6.22;;;18.80;99.90;;;;;;5094938;28;20691;-87
2023/08/20 01:34:08;;;;;;;9.68;6.93;;;18.70;99.90;;;;;;5095732;28;20207;-85
2023/08/20 01:36:35;;;;;;;11.10;7.03;;;18.80;99.90;;;;;;5122385;27;20217;-86
2023/08/20 01:39:04;;;;;;;10.35;6.57;;;18.80;99.90;;;;;;5116342;27;20210;-86
2023/08/20 01:41:31;;;;;;;9.98;6.32;;;18.80;99.90;;;;;;5096477;28;20222;-86
2023/08/20 01:43:58;;;;;;;11.07;6.30;;;18.90;99.90;;;;;;5102656;27;20257;-86
2023/08/20 01:46:27;;;;;;;8.73;5.68;;;18.90;99.90;;;;;;5116968;27;20219;-86
2023/08/20 01:48:53;;;;;;;9.93;6.13;;;18.90;99.90;;;;;;5116790;27;20561;-87
2023/08/20 01:51:20;;;;;;;7.90;5.65;;;19.20;99.90;;;;;;5106788;27;20284;-86
2023/08/20 01:53:47;;;;;;;10.50;6.28;;;18.90;99.90;;;;;;5096021;28;20218;-87
2023/08/20 01:56:14;;;;;;;7.18;5.63;;;18.90;99.90;;;;;;5095688;28;20199;-87
2023/08/20 01:58:41;;;;;;;9.57;5.57;;;18.80;99.90;;;;;;5092451;28;20207;-85
2023/08/20 02:01:08;;;;;;;7.00;5.15;;;18.80;99.90;;;;;;5088975;28;20211;-87
2023/08/20 02:03:37;;;;;;;9.25;5.78;;;18.80;99.90;;;;;;5118901;28;20215;-85
2023/08/20 02:06:04;;;;;;;8.40;5.65;;;18.80;99.90;;;;;;5108286;28;20191;-85
2023/08/20 02:08:31;;;;;;;6.75;5.30;;;18.80;99.90;;;;;;5100771;28;20195;-87
2023/08/20 02:11:02;;;;;;;6.13;4.35;;;18.70;99.90;;;;;;5096200;28;20226;-87
2023/08/20 02:13:30;;;;;;;5.72;4.47;;;18.80;99.90;;;;;;5095141;28;20203;-86
2023/08/20 02:15:58;;;;;;;5.55;4.40;;;18.80;99.90;;;;;;5096009;28;20223;-87
2023/08/20 02:18:26;;;;;;;8.82;4.55;;;18.80;99.90;;;;;;5113810;28;20260;-87
2023/08/20 02:20:54;;;;;;;8.77;5.28;;;18.80;99.90;;;;;;5113922;28;20203;-87
2023/08/20 02:23:21;;;;;;;8.20;5.25;;;18.80;99.90;;;;;;5111996;28;20207;-86
2023/08/20 02:25:48;;;;;;;8.43;5.68;;;18.70;99.90;;;;;;5113394;28;20207;-87
2023/08/20 02:28:15;;;;;;;9.45;5.75;;;18.70;99.90;;;;;;5100262;28;20609;-89
2023/08/20 02:30:43;;;;;;;12.35;5.78;;;18.70;99.90;;;;;;5114882;28;20215;-86
2023/08/20 02:33:11;;;;;;;7.60;5.55;;;18.70;99.90;;;;;;5108732;28;20291;-86
2023/08/20 02:35:41;;;;;;;9.13;5.20;;;18.70;99.90;;;;;;5113881;28;20651;-85
2023/08/20 02:38:09;;;;;;;11.10;5.93;;;18.60;99.90;;;;;;5094943;28;20608;-85
2023/08/20 02:40:41;;;;;;;5.70;5.20;;;18.60;99.90;;;;;;5082680;28;20215;-88
2023/08/20 02:43:09;;;;;;;7.50;5.85;;;18.60;99.90;;;;;;5119955;27;20219;-86
2023/08/20 02:45:43;;;;;;;8.85;5.88;;;18.60;99.90;;;;;;5082229;28;20699;-87
2023/08/20 02:48:11;;;;;;;7.85;5.78;;;18.40;99.90;;;;;;5096256;28;20282;-86
2023/08/20 02:50:38;;;;;;;9.45;6.13;;;18.40;99.90;;;;;;5100931;27;20769;-86
2023/08/20 02:53:05;;;;;;;7.55;5.95;;;18.30;99.90;;;;;;5115878;27;20210;-87
2023/08/20 02:55:33;;;;;;;9.05;5.60;;;18.20;99.90;;;;;;5114842;27;20658;-87
2023/08/20 02:57:59;;;;;;;8.98;5.43;;;18.60;99.90;;;;;;5115060;27;20631;-89
2023/08/20 03:00:26;;;;;;;7.93;5.38;;;18.10;99.90;;;;;;5127857;27;20239;-88
2023/08/20 03:02:53;;;;;;;9.40;6.03;;;18.30;99.90;;;;;;5107071;27;20191;-88
2023/08/20 03:05:20;;;;;;;8.40;5.82;;;18.30;99.90;;;;;;5115168;27;20202;-88
2023/08/20 03:07:47;;;;;;;7.07;5.13;;;18.10;99.90;;;;;;5108387;27;20214;-86
2023/08/20 03:10:14;;;;;;;8.32;5.68;;;18.60;99.90;;;;;;5101821;27;20298;-86
2023/08/20 03:12:41;;;;;;;8.75;5.45;;;18.10;99.90;;;;;;5120367;27;20262;-83
2023/08/20 03:15:08;;;;;;;11.98;5.63;;;18.10;99.90;;;;;;5095716;28;20565;-87
2023/08/20 03:17:35;;;;;;;10.10;5.88;;;18.00;99.90;;;;;;5096094;28;20617;-87
2023/08/20 03:20:05;;;;;;;10.23;6.10;;;17.90;99.90;;;;;;5095331;28;20679;-87
2023/08/20 03:22:33;;;;;;;8.50;6.32;;;17.90;99.90;;;;;;5114973;28;20219;-87
2023/08/20 03:25:00;;;;;;;11.38;6.47;;;17.90;99.90;;;;;;5095963;28;20214;-86
2023/08/20 03:27:29;;;;;;;9.57;5.55;;;17.90;99.90;;;;;;5095798;28;20211;-86
2023/08/20 03:29:56;;;;;;;7.55;5.38;;;17.80;99.90;;;;;;5096480;28;20225;-88
2023/08/20 03:32:23;;;;;;;7.50;5.68;;;17.70;99.90;;;;;;5096000;28;20238;-87
2023/08/20 03:34:50;;;;;;;6.85;5.05;;;17.70;99.90;;;;;;5096502;28;20215;-87
2023/08/20 03:37:17;;;;;;;6.97;5.30;;;17.70;99.90;;;;;;5094927;28;20245;-87
2023/08/20 03:39:44;;;;;;;5.65;5.05;;;17.80;99.90;;;;;;5089633;28;20288;-87
2023/08/20 03:42:11;;;;;;;8.93;5.30;;;17.70;99.90;;;;;;5092573;28;20203;-88
2023/08/20 03:44:38;;;;;;;7.22;4.88;;;17.60;99.90;;;;;;5112769;28;20257;-87
2023/08/20 03:47:05;;;;;;;8.07;4.57;;;17.60;99.90;;;;;;5115753;28;20219;-87
2023/08/20 03:49:35;;;;;;;9.65;4.93;;;17.60;99.90;;;;;;5119314;28;20229;-86
2023/08/20 03:52:02;;;;;;;8.93;5.43;;;17.60;99.90;;;;;;5095555;28;20675;-88
2023/08/20 03:54:30;;;;;;;6.70;4.30;;;17.60;99.90;;;;;;5095476;28;20211;-87
2023/08/20 03:56:56;;;;;;;9.75;5.13;;;17.50;99.90;;;;;;5122399;28;20686;-87
2023/08/20 03:59:23;;;;;;;6.97;4.53;;;17.50;99.90;;;;;;5118808;28;20207;-87
2023/08/20 04:01:50;;;;;;;9.27;4.72;;;17.50;99.90;;;;;;5093817;28;20234;-86
2023/08/20 04:04:18;;;;;;;6.40;4.30;;;17.50;99.90;;;;;;5093846;28;20256;-88
2023/08/20 04:06:45;;;;;;;8.27;4.90;;;17.50;99.90;;;;;;5112308;28;20211;-88
2023/08/20 04:09:15;;;;;;;7.22;4.55;;;17.50;99.90;;;;;;5093638;28;20207;-87
2023/08/20 04:11:42;;;;;;;7.93;4.82;;;17.40;99.90;;;;;;5089542;28;20322;-87
2023/08/20 04:14:09;;;;;;;6.13;4.38;;;17.40;99.90;;;;;;5085471;28;20199;-87
2023/08/20 04:16:36;;;;;;;11.85;4.95;;;17.50;99.90;;;;;;5111163;28;20686;-88
2023/08/20 04:19:03;;;;;;;6.38;4.60;;;17.40;99.90;;;;;;5093414;28;20203;-87
2023/08/20 04:21:30;;;;;;;6.80;5.10;;;17.40;99.90;;;;;;5114932;28;20261;-87
2023/08/20 04:23:56;;;;;;;10.68;4.97;;;17.40;99.90;;;;;;5116827;28;20202;-86
2023/08/20 04:26:23;;;;;;;8.05;4.63;;;17.40;99.90;;;;;;5098711;28;20310;-87
2023/08/20 04:28:50;;;;;;;7.53;4.80;;;17.40;99.90;;;;;;5115990;28;20252;-88
2023/08/20 04:31:17;;;;;;;9.23;5.03;;;17.40;99.90;;;;;;5098566;28;20581;-87
2023/08/20 04:33:46;;;;;;;11.23;5.25;;;17.40;99.90;;;;;;5098995;28;20201;-88
2023/08/20 04:36:15;;;;;;;9.02;5.05;;;17.40;99.90;;;;;;5123121;27;20214;-87
2023/08/20 04:38:42;;;;;;;8.10;5.13;;;17.30;99.90;;;;;;5123852;27;20264;-88
2023/08/20 04:41:09;;;;;;;8.70;5.05;;;17.30;99.90;;;;;;5121991;27;20210;-87
2023/08/20 04:43:37;;;;;;;6.88;4.53;;;17.30;99.90;;;;;;5112982;27;20198;-89
2023/08/20 04:46:03;;;;;;;6.72;4.70;;;17.30;99.90;;;;;;5106051;27;20218;-87
2023/08/20 04:48:30;;;;;;;7.47;5.05;;;17.40;99.90;;;;;;5118626;27;20194;-90
2023/08/20 04:50:58;;;;;;;6.25;4.72;;;17.30;99.90;;;;;;5106515;27;20230;-88
2023/08/20 04:53:25;;;;;;;9.15;4.50;;;17.30;99.90;;;;;;5136839;27;20222;-87
2023/08/20 04:55:52;;;;;;;8.40;4.63;;;17.40;99.90;;;;;;5105834;27;20221;-87
2023/08/20 04:58:19;;;;;;;6.38;4.68;;;17.30;99.90;;;;;;5136856;27;20637;-86
2023/08/20 05:00:47;;;;;;;8.50;4.53;;;17.40;99.90;;;;;;5111294;28;20671;-88
2023/08/20 05:03:14;;;;;;;6.45;4.55;;;17.30;99.90;;;;;;5114253;27;20614;-88
2023/08/20 05:05:41;;;;;;;6.95;4.45;;;17.30;99.90;;;;;;5115459;28;20207;-91
2023/08/20 05:08:08;;;;;;;5.45;4.75;;;17.30;99.90;;;;;;5113463;27;20252;-87
2023/08/20 05:10:37;;;;;;;7.25;4.38;;;17.40;99.90;;;;;;5137132;27;20655;-87
2023/08/20 05:13:04;;;;;;;10.18;4.82;;;17.40;99.90;;;;;;5121334;27;20223;-87
2023/08/20 05:15:30;;;;;;;6.45;4.60;;;17.40;99.90;;;;;;5118319;28;20215;-89
2023/08/20 05:17:58;;;;;;;8.88;4.70;;;17.40;99.90;;;;;;5126545;28;20334;-87
2023/08/20 05:20:25;;;;;;;6.95;4.72;;;17.40;99.90;;;;;;5128961;28;20229;-89
2023/08/20 05:22:52;;;;;;;6.45;4.43;;;17.50;99.90;;;;;;5106588;28;20225;-87
2023/08/20 05:25:19;;;;;;;6.47;4.88;;;17.50;99.90;;;;;;5111749;28;20203;-86
2023/08/20 05:27:46;;;;;;;7.63;4.72;;;17.50;99.90;;;;;;5124187;28;20637;-88
2023/08/20 05:30:13;;;;;;;7.80;4.85;;;17.50;99.90;;;;;;5134683;27;20237;-87
2023/08/20 05:32:40;;;;;;;11.32;4.82;;;17.60;99.90;;;;;;5108556;27;20222;-88
2023/08/20 05:35:07;;;;;;;7.90;4.80;;;17.60;99.90;;;;;;5121258;27;20216;-88
2023/08/20 05:37:34;;;;;;;7.95;5.28;;;17.70;99.90;;;;;;5118625;28;20253;-89
2023/08/20 05:40:02;;;;;;;8.65;4.85;;;17.70;99.90;;;;;;5101471;28;20233;-87
2023/08/20 05:42:29;;;;;;;11.60;5.75;;;17.80;99.90;;;;;;5135794;27;20267;-87
2023/08/20 05:44:56;;;;;;;14.40;5.40;;;17.80;99.90;;;;;;5138110;27;20607;-86
2023/08/20 05:47:23;;;;;;;8.07;4.88;;;17.80;99.90;;;;;;5111111;27;20222;-84
2023/08/20 05:49:50;;;;;;;10.32;5.28;;;17.90;99.90;;;;;;5144144;27;20237;-87
2023/08/20 05:52:16;;;;;;;8.10;4.53;;;17.90;99.90;;;;;;5118109;27;20261;-87
2023/08/20 05:54:43;;;;;;;7.78;4.75;;;18.00;99.90;;;;;;5125808;27;20206;-87
2023/08/20 05:57:10;;;;;;;6.78;4.53;;;18.10;99.90;;;;;;5116088;27;20202;-87
2023/08/20 05:59:37;;;;;;;10.85;4.78;;;18.20;99.90;;;;;;5136204;27;20205;-89
2023/08/20 06:02:04;;;;;;;7.35;4.60;;;18.20;99.90;;;;;;5136013;27;20222;-88
2023/08/20 06:04:31;;;;;;;8.00;4.53;;;18.30;99.90;;;;;;5125442;27;20207;-87
2023/08/20 06:06:58;;;;;;;9.50;4.60;;;18.40;99.90;;;;;;5114347;28;20213;-87
2023/08/20 06:09:25;;;;;;;8.23;4.07;;;18.40;99.90;;;;;;5116437;28;20596;-85
2023/08/20 06:11:52;;;;;;;7.20;4.03;;;18.50;99.90;;;;;;5110074;28;20225;-88
2023/08/20 06:14:19;;;;;;;6.45;3.63;;;18.50;99.90;;;;;;5098090;28;20646;-86
2023/08/20 06:16:45;;;;;;;9.50;4.30;;;18.70;99.90;;;;;;5097352;28;20215;-89
2023/08/20 06:19:13;;;;;;;8.25;3.63;;;;;;;;;;5114975;28;20203;-87
2023/08/20 06:21:40;;;;;;;5.20;2.72;;;20.40;99.90;;;;;;5118471;28;20245;-89
2023/08/20 06:24:07;;;;;;;5.38;2.42;;;21.50;99.90;;;;;;5097828;28;20225;-87
2023/08/20 06:26:34;;;;;;;6.45;2.40;;;22.40;99.90;;;;;;5096272;28;20682;-89
2023/08/20 06:29:01;;;;;;;7.70;2.70;;;23.50;99.90;;;;;;5098388;28;20195;-87
2023/08/20 06:31:29;;;;;;;7.32;2.28;;;24.30;99.90;;;;;;5090890;28;20306;-88
2023/08/20 06:33:56;;;;;;;9.07;2.30;;;25.10;99.90;;;;;;5089860;28;20631;-88
2023/08/20 06:36:23;;;;;;;7.25;2.13;;;25.90;99.90;;;;;;5098236;28;20217;-87
2023/08/20 06:38:49;;;;;;;6.95;1.85;;;26.50;99.90;;;;;;5101466;28;20217;-86
2023/08/20 06:41:17;;;;;;;4.75;2.17;;;27.10;99.90;;;;;;5096937;28;20350;-87
2023/08/20 06:43:44;;;;;;;5.03;1.90;;;27.70;99.90;;;;;;5095456;28;20217;-89
2023/08/20 06:46:11;;;;;;;7.00;2.00;;;28.20;99.90;;;;;;5095792;28;20219;-89
2023/08/20 06:48:39;;;;;;;3.55;1.70;;;;;;;;;;5094826;28;20203;-89
2023/08/20 06:51:17;;;;;;;5.50;1.90;;;28.80;99.90;;;;;;5095312;28;20235;-87
2023/08/20 06:53:44;;;;;;;4.75;1.70;;;29.20;99.90;;;;;;5095399;28;20233;-88
2023/08/20 06:56:11;;;;;;;8.43;1.88;;;29.30;99.90;;;;;;5100597;28;20249;-89
2023/08/20 06:58:39;;;;;;;3.75;2.08;;;29.60;99.90;;;;;;5095784;28;20249;-90
2023/08/20 07:01:07;;;;;;;6.03;1.77;;;30.00;99.90;;;;;;5113091;28;20223;-90
2023/08/20 07:03:38;;;;;;;5.38;1.73;;;30.10;99.90;;;;;;5094742;28;20230;-88
2023/08/20 07:06:05;;;;;;;6.43;1.80;;;30.10;99.90;;;;;;5096427;28;20645;-89
2023/08/20 07:08:33;;;;;;;3.88;1.50;;;30.20;99.90;;;;;;5095518;28;20207;-89
2023/08/20 07:11:01;;;;;;;5.13;1.80;;;30.10;99.90;;;;;;5095088;28;20215;-87
2023/08/20 07:13:28;;;;;;;3.08;1.48;;;30.10;99.90;;;;;;5113053;28;20226;-88
2023/08/20 07:15:58;;;;;;;5.65;1.88;;;30.50;99.90;;;;;;5117889;28;20234;-87
2023/08/20 07:18:25;;;;;;;4.35;1.42;;;30.70;99.90;;;;;;5100618;28;20234;-87
2023/08/20 07:20:52;;;;;;;7.38;2.10;;;31.00;99.90;;;;;;5102188;28;20270;-86
2023/08/20 07:23:22;;;;;;;5.65;1.30;;;31.00;99.90;;;;;;5102548;28;20289;-87
2023/08/20 07:26:05;;;;;;;5.10;1.50;;;31.00;99.90;;;;;;5102075;28;20198;-86
2023/08/20 07:31:31;;;;;;;4.68;1.67;;;30.70;99.90;;;;;;5118166;28;20222;-89
2023/08/20 07:34:02;;;;;;;4.85;1.70;;;30.50;99.90;;;;;;5094458;28;20230;-85
2023/08/20 07:36:34;;;;;;;6.10;2.00;;;30.70;99.90;;;;;;5097327;28;20238;-87
2023/08/20 07:39:04;;;;;;;3.95;1.25;;;31.00;99.90;;;;;;5097506;28;20294;-87
2023/08/20 07:41:31;;;;;;;4.25;1.40;;;31.30;99.90;;;;;;5095663;28;20218;-86
2023/08/20 07:43:58;;;;;;;7.47;1.60;;;31.70;99.90;;;;;;5094960;28;20400;-87
2023/08/20 07:46:25;;;;;;;4.30;1.50;;;32.10;99.90;;;;;;5096555;28;20230;-85
2023/08/20 07:48:52;;;;;;;4.00;1.23;;;32.50;99.90;;;;;;5097482;28;20217;-85
2023/08/20 07:51:19;;;;;;;6.88;1.67;;;32.60;99.90;;;;;;5098791;28;20612;-86
2023/08/20 07:53:46;;;;;;;4.72;1.60;;;31.90;99.90;;;;;;5084249;28;20227;-86
2023/08/20 07:56:13;;;;;;;5.55;1.30;;;31.80;99.90;;;;;;5098730;28;20207;-86
2023/08/20 07:58:40;;;;;;;4.88;1.73;;;31.80;99.90;;;;;;5081783;28;20254;-86
2023/08/20 08:01:07;;;;;;;3.05;1.23;;;32.10;99.90;;;;;;5077968;28;20269;-87
2023/08/20 08:03:35;;;;;;;2.67;0.90;;;32.50;99.90;;;;;;5081124;28;20203;-88
2023/08/20 08:06:05;;;;;;;3.47;1.05;;;32.60;99.90;;;;;;5105938;28;20640;-86
2023/08/20 08:08:31;;;;;;;3.22;1.17;;;32.80;99.90;;;;;;5094776;28;20199;-86
2023/08/20 08:10:59;;;;;;;1.83;0.90;;;32.90;99.90;;;;;;5090336;28;20271;-86
2023/08/20 08:13:27;;;;;;;3.72;1.17;;;32.50;99.90;;;;;;5062522;28;20234;-87
2023/08/20 08:15:53;;;;;;;2.60;0.90;;;32.50;99.90;;;;;;5072843;28;20227;-86
2023/08/20 08:18:23;;;;;;;1.88;1.02;;;32.00;99.90;;;;;;5072694;28;20238;-90
2023/08/20 08:20:50;;;;;;;2.22;0.95;;;31.70;99.90;;;;;;5072716;28;20568;-88
2023/08/20 08:23:17;;;;;;;1.77;1.10;;;31.70;99.90;;;;;;5072400;28;20679;-90
2023/08/20 08:25:44;;;;;;;4.88;1.33;;;31.60;99.90;;;;;;5072832;28;20623;-88
2023/08/20 08:28:11;;;;;;;3.30;1.00;;;31.60;99.90;;;;;;5079562;28;20217;-87
2023/08/20 08:30:39;;;;;;;2.85;1.17;;;31.50;99.90;;;;;;5080137;28;20269;-88
2023/08/20 08:33:07;;;;;;;4.10;1.10;;;31.50;99.90;;;;;;5092463;28;20219;-89
2023/08/20 08:35:36;;;;;;;2.08;1.00;;;31.40;99.90;;;;;;5090269;28;20670;-88
2023/08/20 08:38:03;;;;;;;2.53;0.90;;;31.60;99.90;;;;;;5073394;28;20207;-86
2023/08/20 08:40:31;;;;;;;4.60;1.02;;;31.80;99.90;;;;;;5065678;28;20207;-88
2023/08/20 08:43:02;;;;;;;2.47;0.95;;;32.00;99.90;;;;;;5079564;28;20679;-91
2023/08/20 08:45:30;;;;;;;4.45;1.23;;;32.20;99.90;;;;;;5075081;28;20226;-87
2023/08/20 08:48:02;;;;;;;3.58;0.93;;;32.10;99.90;;;;;;5093076;28;20207;-90
2023/08/20 08:50:30;;;;;;;6.25;1.33;;;31.70;99.90;;;;;;5114557;28;20222;-87
2023/08/20 08:53:00;;;;;;;2.35;0.82;;;31.40;99.90;;;;;;5104989;28;20228;-86
2023/08/20 08:55:27;;;;;;;3.15;0.90;;;31.40;99.90;;;;;;5115963;28;20202;-87
2023/08/20 08:57:55;;;;;;;2.40;0.73;;;31.30;99.90;;;;;;5106139;28;20202;-88
2023/08/20 09:00:22;;;;;;;4.07;0.90;;;31.10;99.90;;;;;;5115094;28;20329;-88
2023/08/20 09:02:49;;;;;;;3.72;1.20;;;31.10;99.90;;;;;;5118256;28;20201;-87
2023/08/20 09:05:16;;;;;;;2.17;0.77;;;31.00;99.90;;;;;;5118258;28;20554;-86
2023/08/20 09:07:44;;;;;;;4.72;1.35;;;31.10;99.90;;;;;;5116701;27;20216;-87
2023/08/20 09:10:12;;;;;;;2.58;0.98;;;31.10;99.90;;;;;;5124178;27;20214;-86
2023/08/20 09:12:39;;;;;;;3.05;0.95;;;30.90;99.90;;;;;;5107253;28;20219;-87
2023/08/20 09:15:11;;;;;;;2.63;0.75;;;30.90;99.90;;;;;;5098449;28;20234;-87
2023/08/20 09:17:43;;;;;;;3.03;0.90;;;30.80;99.90;;;;;;5101696;28;20219;-86
2023/08/20 09:20:10;;;;;;;2.88;0.98;;;30.90;99.90;;;;;;5092167;28;20725;-86
2023/08/20 09:22:39;;;;;;;2.88;1.02;;;30.80;99.90;;;;;;5110477;28;20195;-85
2023/08/20 09:25:16;;;;;;;1.38;0.80;;;;;;;;;;5108349;28;20221;-87
2023/08/20 09:27:46;;;;;;;2.35;0.80;;;30.70;99.90;;;;;;5112600;27;20205;-87
2023/08/20 09:30:23;;;;;;;1.85;0.70;;;30.90;99.90;;;;;;5122405;28;20298;-85
2023/08/20 09:33:14;;;;;;;2.58;0.90;;;30.60;99.90;;;;;;5109841;28;20241;-88
2023/08/20 09:35:51;;;;;;;1.80;0.90;;;30.30;99.90;;;;;;5119007;27;20221;-86
2023/08/20 09:38:23;;;;;;;3.13;0.98;;;30.20;99.90;;;;;;5125198;27;20202;-86
2023/08/20 09:40:58;;;;;;;3.33;0.80;;;29.90;99.90;;;;;;5131056;27;20209;-86
2023/08/20 09:43:32;;;;;;;3.72;1.10;;;29.80;99.90;;;;;;5091017;28;20206;-84
2023/08/20 09:46:02;;;;;;;3.28;0.75;;;29.90;99.90;;;;;;5124139;27;20222;-86
2023/08/20 09:48:35;;;;;;;2.58;0.90;;;29.90;99.90;;;;;;5111925;28;20221;-86
2023/08/20 09:51:10;;;;;;;1.20;0.73;;;29.90;99.90;;;;;;5114152;27;20751;-86
2023/08/20 09:53:53;;;;;;;2.97;0.75;;;30.10;99.90;;;;;;5116794;28;20226;-84
2023/08/20 09:56:36;;;;;;;3.10;0.68;;;30.20;99.90;;;;;;5101302;28;20199;-86
2023/08/20 09:59:04;;;;;;;2.00;0.70;;;30.20;99.90;;;;;;5094988;27;20220;-85
2023/08/20 10:01:31;;;;;;;3.05;0.80;;;30.20;99.90;;;;;;5123092;27;20681;-81
2023/08/20 10:03:59;;;;;;;1.55;0.50;;;30.30;99.90;;;;;;5093664;27;20202;-83
2023/08/20 10:06:32;;;;;;;1.83;0.50;;;30.20;99.90;;;;;;5110349;28;20302;-85
2023/08/20 10:09:13;;;;;;;1.27;0.50;;;30.20;99.90;;;;;;5113689;28;20195;-85
2023/08/20 10:11:40;;;;;;;1.77;0.88;;;29.90;99.90;;;;;;5115049;28;20195;-83
2023/08/20 10:14:07;;;;;;;1.65;0.60;;;29.90;99.90;;;;;;5101970;28;20311;-85
2023/08/20 10:16:35;;;;;;;0.57;0.50;;;30.00;99.90;;;;;;5100835;28;20228;-83
2023/08/20 10:19:04;;;;;;;2.10;0.82;;;30.00;99.90;;;;;;5099080;28;20206;-84
2023/08/20 10:21:31;;;;;;;3.33;0.75;;;29.90;99.90;;;;;;5098458;28;20207;-85
2023/08/20 10:24:10;;;;;;;1.55;0.63;;;29.70;99.90;;;;;;5127402;27;20675;-85
2023/08/20 10:26:37;;;;;;;2.50;0.73;;;29.60;99.90;;;;;;5081774;28;20208;-85
2023/08/20 10:29:36;;;;;;;2.17;0.73;;;29.30;99.90;;;;;;5124281;27;20289;-85
2023/08/20 10:32:08;;;;;;;1.27;0.70;;;29.30;99.90;;;;;;5138774;27;20222;-86
2023/08/20 10:34:42;;;;;;;2.45;0.57;;;29.20;99.90;;;;;;5108888;27;20589;-83
2023/08/20 10:37:12;;;;;;;1.45;0.57;;;29.30;99.90;;;;;;5136580;27;20226;-86
2023/08/20 10:39:39;;;;;;;1.50;0.68;;;29.00;99.90;;;;;;5116144;28;20569;-85
2023/08/20 10:42:15;;;;;;;1.27;0.60;;;29.30;99.90;;;;;;5100520;28;20210;-84
2023/08/20 10:45:03;;;;;;;1.15;0.75;;;29.30;99.90;;;;;;5117266;28;20284;-84
2023/08/20 10:47:48;;;;;;;2.03;1.25;;;29.50;99.90;;;;;;5135673;27;20218;-86
2023/08/20 10:50:16;;;;;;;2.17;0.60;;;29.70;99.90;;;;;;5141155;27;20248;-83
2023/08/20 10:52:56;;;;;;;2.38;0.65;;;29.30;99.90;;;;;;5127852;27;20724;-84
2023/08/20 10:55:29;;;;;;;2.13;0.90;;;29.20;99.90;;;;;;5131564;27;20258;-83
2023/08/20 10:57:59;;;;;;;1.15;0.52;;;29.30;99.90;;;;;;5132782;27;20225;-83
2023/08/20 11:00:28;;;;;;;2.15;0.98;;;29.30;99.90;;;;;;5119629;28;20375;-85
2023/08/20 11:02:55;;;;;;;1.65;0.80;;;29.40;99.90;;;;;;5118257;28;20645;-83
2023/08/20 11:05:22;;;;;;;1.98;0.75;;;29.40;99.90;;;;;;5110765;28;20233;-83
2023/08/20 11:07:52;;;;;;;1.52;0.60;;;29.40;99.90;;;;;;5108573;27;20330;-86
2023/08/20 11:10:20;;;;;;;1.73;0.73;;;29.30;99.90;;;;;;5115430;27;20542;-82
2023/08/20 11:12:47;;;;;;;5.47;1.02;;;29.40;99.90;;;;;;5101859;28;20202;-83
2023/08/20 11:15:14;;;;;;;2.95;0.80;;;29.30;99.90;;;;;;5096071;28;20214;-84
2023/08/20 11:17:48;;;;;;;1.88;0.70;;;29.30;99.90;;;;;;5116557;28;20655;-85
2023/08/20 11:20:17;;;;;;;1.25;0.40;;;29.30;99.90;;;;;;5100703;28;20203;-82
2023/08/20 11:22:44;;;;;;;4.57;0.98;;;29.30;99.90;;;;;;5119436;28;20203;-84
2023/08/20 11:25:15;;;;;;;1.55;1.02;;;29.30;99.90;;;;;;5112391;27;20202;-85
2023/08/20 11:27:43;;;;;;;2.15;0.75;;;29.30;99.90;;;;;;5122144;27;20198;-86
2023/08/20 11:30:13;;;;;;;2.35;0.63;;;29.40;99.90;;;;;;5117019;28;20593;-84
2023/08/20 11:32:45;;;;;;;1.38;0.70;;;29.20;99.90;;;;;;5117808;27;20546;-84
2023/08/20 11:35:13;;;;;;;1.92;0.70;;;29.20;99.90;;;;;;5107933;28;20227;-85
2023/08/20 11:37:42;;;;;;;3.08;0.90;;;29.20;99.90;;;;;;5112205;27;20281;-83
2023/08/20 11:40:09;;;;;;;5.47;0.98;;;29.00;99.90;;;;;;5106934;28;20211;-84
2023/08/20 11:42:36;;;;;;;1.70;0.75;;;28.80;99.90;;;;;;5114478;28;20199;-85
2023/08/20 11:45:04;;;;;;;1.85;0.73;;;28.50;99.90;;;;;;5096878;28;20207;-84
2023/08/20 11:47:39;;;;;;;2.90;0.90;;;28.30;99.90;;;;;;5133436;27;20239;-87
2023/08/20 11:50:06;;;;;;;2.60;1.20;;;28.20;99.90;;;;;;5117344;27;20716;-83
2023/08/20 11:52:35;;;;;;;3.50;1.02;;;28.20;99.90;;;;;;5118761;27;20203;-85
2023/08/20 11:55:02;;;;;;;2.58;0.88;;;28.20;99.90;;;;;;5120049;27;20721;-84
2023/08/20 11:57:31;;;;;;;3.28;0.88;;;28.50;99.90;;;;;;5092963;27;20214;-83
2023/08/20 12:00:09;;;;;;;3.13;0.85;;;28.70;99.90;;;;;;5104728;28;20227;-82
2023/08/20 12:02:42;;;;;;;2.13;0.80;;;29.00;99.90;;;;;;5122072;27;20210;-85
2023/08/20 12:05:09;;;;;;;3.30;0.95;;;29.10;99.90;;;;;;5118592;27;20221;-84
2023/08/20 12:07:36;;;;;;;4.15;0.88;;;29.20;99.90;;;;;;5112757;27;20206;-82
2023/08/20 12:10:23;;;;;;;1.92;0.80;;;29.40;99.90;;;;;;5116225;28;20206;-84
2023/08/20 12:12:51;;;;;;;2.92;0.73;;;29.40;99.90;;;;;;5105652;28;20281;-84
2023/08/20 12:15:19;;;;;;;2.42;0.65;;;29.30;99.90;;;;;;5096739;28;20597;-84
2023/08/20 12:18:00;;;;;;;1.20;0.85;;;29.00;99.90;;;;;;5100748;28;20195;-85
2023/08/20 12:20:29;;;;;;;4.35;0.90;;;28.80;99.90;;;;;;5106411;28;20201;-86
2023/08/20 12:22:59;;;;;;;1.98;0.70;;;28.70;99.90;;;;;;5107140;28;20231;-86
2023/08/20 12:25:26;;;;;;;2.42;0.90;;;28.60;99.90;;;;;;5103660;28;20527;-86
2023/08/20 12:27:56;;;;;;;2.03;0.85;;;28.70;99.90;;;;;;5103083;28;20564;-83
2023/08/20 12:30:24;;;;;;;2.17;0.88;;;28.50;99.90;;;;;;5122715;28;21053;-83
2023/08/20 12:32:51;;;;;;;3.50;0.77;;;28.40;99.90;;;;;;5109509;28;20542;-85
2023/08/20 12:35:18;;;;;;;2.40;0.70;;;28.40;99.90;;;;;;5100815;28;20214;-84
2023/08/20 12:37:45;;;;;;;2.33;0.70;;;28.20;99.90;;;;;;5100653;28;20203;-86
2023/08/20 12:40:12;;;;;;;1.25;0.70;;;28.30;99.90;;;;;;5102983;28;20706;-84
2023/08/20 12:42:40;;;;;;;3.08;0.88;;;28.50;99.90;;;;;;5107450;27;20285;-87
2023/08/20 12:45:12;;;;;;;1.77;0.80;;;28.70;99.90;;;;;;5127248;27;20546;-87
2023/08/20 12:47:40;;;;;;;2.78;0.90;;;29.00;99.90;;;;;;5096064;27;20565;-85
2023/08/20 12:50:07;;;;;;;1.52;0.63;;;29.20;99.90;;;;;;5119947;27;20733;-87
2023/08/20 12:52:34;;;;;;;3.08;1.23;;;29.60;99.90;;;;;;5118565;27;20213;-85
2023/08/20 12:55:02;;;;;;;2.92;0.90;;;29.70;99.90;;;;;;5119047;27;20223;-85
2023/08/20 12:57:34;;;;;;;3.70;0.90;;;29.90;99.90;;;;;;5119756;27;20656;-84
2023/08/20 13:00:11;;;;;;;1.90;0.77;;;30.00;99.90;;;;;;5119828;27;20655;-84